Huvudsida
METAR-TAF:

METAR-TAF

Flygplatser :

Ermelo, Sydafrika

latitud: 26-29-44S, longitud: 29-58-47E, höjd: 1737 m

Aktuellt väderrapport

Denna rapport gjordes för 13 timmar och 0 minuter sedan, klockan 06:48 UTC
Vind 4 kt från nordost
Temperatur 20°C
Fuktighet 83%
Tryck 1022 hPa
Sikt 10 km eller mer
Få moln på en höjd av 1500 ft

METAR: FAEO 220648Z 05004KT 9999 FEW015 20/17 Q1022

Tid: 21:48 (19:48 UTC)


TAF: saknas

Aktuella väderrapporter och prognoser från 4000 flygplatser (METAR- och TAF-rapporter).

De tillgängliga stationerna syns som gula och röda prickar på kartan.

För musen över prickarna för att se namnen på stationerna.

Klicka sedan för att få väderrapporter och prognoser.

För att ändra kartan: Klicka på de gröna knapparna med ett svart kors på för att zooma in; den gröna knappen med ett streck på för att zooma ut; eller på de gröna pilarna för angränsande kartor.


METAR-TAF: